logo dgac
Lunes 25 de Junio del 2018
Buscar por aerodromo o helipuerto
Ingrese nombre de aeródromo, localidad o designador OACI:
METAR del 25-06-2018 a las 09:00 UTC
METAR SCBA 250900Z AUTO 30008KT 9999 -SHRA SCT011 BKN015 BKN019 01/M00 Q1006
Nan: AUTO
Viento: dirección 300 grados, velocidad 8 nudos
Visibilidad: 10 km o más
Débil ChubascosLluvia
Nubes: Nubosidad parcial a 1100 pies sobre el nivel del aeródromo
Nubes: Nublado a 1500 pies sobre el nivel del aeródromo
Nubes: Nublado a 1900 pies sobre el nivel del aeródromo
Temperatura: 1 °C
Rocío: -0 °C
Humedad_relativa: 93%
Presión: 1006 hPa
METAR del 25-06-2018 a las 08:00 UTC
METAR SCBA 250800Z AUTO 29007KT 270V330 9999 SCT050 BKN098 01/M00 Q1007
Nan: AUTO
Viento: dirección 290 grados, velocidad 7 nudos
Viento con dirección variable entre 270 y 330 grados
Visibilidad: 10 km o más
Nubes: Nubosidad parcial a 5000 pies sobre el nivel del aeródromo
Nubes: Nublado a 9800 pies sobre el nivel del aeródromo
Temperatura: 1 °C
Rocío: -0 °C
Humedad_relativa: 93%
Presión: 1007 hPa
METAR del 25-06-2018 a las 07:00 UTC
METAR SCBA 250700Z AUTO 28008KT CAVOK 00/M02 Q1008
Nan: AUTO
Viento: dirección 280 grados, velocidad 8 nudos
Visibilidad: 10 km o más,
    sin nubes bajo los 5.000 pies o bajo del MSA (Mínimo de Seguridad del Aeródromo),
    sin cumulonimbus, y sin fenómenos de tiempo significativo en el aeródromo o alrededores
Temperatura: 0 °C
Rocío: -2 °C
Humedad_relativa: 86%
Presión: 1008 hPa
METAR del 25-06-2018 a las 06:00 UTC
METAR SCBA 250600Z AUTO 29009KT CAVOK 01/M02 Q1008
Nan: AUTO
Viento: dirección 290 grados, velocidad 9 nudos
Visibilidad: 10 km o más,
    sin nubes bajo los 5.000 pies o bajo del MSA (Mínimo de Seguridad del Aeródromo),
    sin cumulonimbus, y sin fenómenos de tiempo significativo en el aeródromo o alrededores
Temperatura: 1 °C
Rocío: -2 °C
Humedad_relativa: 80%
Presión: 1008 hPa
METAR del 25-06-2018 a las 05:00 UTC
METAR SCBA 250500Z AUTO 29017KT CAVOK 02/M01 Q1008
Nan: AUTO
Viento: dirección 290 grados, velocidad 17 nudos
Visibilidad: 10 km o más,
    sin nubes bajo los 5.000 pies o bajo del MSA (Mínimo de Seguridad del Aeródromo),
    sin cumulonimbus, y sin fenómenos de tiempo significativo en el aeródromo o alrededores
Temperatura: 2 °C
Rocío: -1 °C
Humedad_relativa: 81%
Presión: 1008 hPa
METAR del 25-06-2018 a las 04:00 UTC
METAR SCBA 250400Z AUTO 30021KT 9999 02/M01 Q1007
Nan: AUTO
Viento: dirección 300 grados, velocidad 21 nudos
Visibilidad: 10 km o más
Temperatura: 2 °C
Rocío: -1 °C
Humedad_relativa: 81%
Presión: 1007 hPa
METAR del 25-06-2018 a las 04:00 UTC
METAR SCBA 250400Z AUTO 30021KT 9999 02/M01 Q1007
Nan: AUTO
Viento: dirección 300 grados, velocidad 21 nudos
Visibilidad: 10 km o más
Temperatura: 2 °C
Rocío: -1 °C
Humedad_relativa: 81%
Presión: 1007 hPa
METAR del 25-06-2018 a las 03:00 UTC
METAR SCBA 250300Z AUTO 29019KT CAVOK 02/M01 Q1007
Nan: AUTO
Viento: dirección 290 grados, velocidad 19 nudos
Visibilidad: 10 km o más,
    sin nubes bajo los 5.000 pies o bajo del MSA (Mínimo de Seguridad del Aeródromo),
    sin cumulonimbus, y sin fenómenos de tiempo significativo en el aeródromo o alrededores
Temperatura: 2 °C
Rocío: -1 °C
Humedad_relativa: 81%
Presión: 1007 hPa
METAR del 25-06-2018 a las 02:00 UTC
METAR SCBA 250200Z AUTO 29022KT CAVOK 02/M01 Q1006
Nan: AUTO
Viento: dirección 290 grados, velocidad 22 nudos
Visibilidad: 10 km o más,
    sin nubes bajo los 5.000 pies o bajo del MSA (Mínimo de Seguridad del Aeródromo),
    sin cumulonimbus, y sin fenómenos de tiempo significativo en el aeródromo o alrededores
Temperatura: 2 °C
Rocío: -1 °C
Humedad_relativa: 81%
Presión: 1006 hPa
METAR del 25-06-2018 a las 01:00 UTC
METAR SCBA 250100Z AUTO 29018KT CAVOK 02/M01 Q1006
Nan: AUTO
Viento: dirección 290 grados, velocidad 18 nudos
Visibilidad: 10 km o más,
    sin nubes bajo los 5.000 pies o bajo del MSA (Mínimo de Seguridad del Aeródromo),
    sin cumulonimbus, y sin fenómenos de tiempo significativo en el aeródromo o alrededores
Temperatura: 2 °C
Rocío: -1 °C
Humedad_relativa: 81%
Presión: 1006 hPa